createdAt,value
2018-02-24T00:02:18.992Z,13.73
2018-02-24T00:04:45.189Z,14.68
2018-02-24T00:07:11.380Z,15.68
2018-02-24T00:09:37.601Z,15.07
2018-02-24T00:12:03.808Z,15.18
2018-02-24T00:14:30.014Z,14.95
2018-02-24T00:16:56.231Z,15.77
2018-02-24T00:19:22.432Z,14.13
2018-02-24T00:21:48.685Z,14.38
2018-02-24T00:24:15.641Z,14.30
2018-02-24T00:26:43.062Z,14.40
2018-02-24T00:29:09.302Z,14.43
2018-02-24T00:31:35.654Z,16.10
2018-02-24T00:34:02.054Z,15.20
2018-02-24T00:36:28.281Z,15.35
2018-02-24T00:38:54.523Z,13.38
2018-02-24T00:41:21.482Z,13.45
2018-02-24T00:43:47.709Z,15.55
2018-02-24T00:46:13.939Z,15.35
2018-02-24T00:48:40.152Z,15.27
2018-02-24T00:51:06.402Z,16.27
2018-02-24T00:53:32.615Z,15.52
2018-02-24T00:55:58.841Z,16.05
2018-02-24T00:58:25.060Z,16.25
2018-02-24T01:00:51.349Z,17.08
2018-02-24T01:03:17.547Z,14.57
2018-02-24T01:05:44.499Z,14.10
2018-02-24T01:08:10.700Z,14.87
2018-02-24T01:10:38.481Z,15.25
2018-02-24T01:13:04.680Z,15.70
2018-02-24T01:15:30.911Z,14.77
2018-02-24T01:17:57.136Z,16.10
2018-02-24T01:20:24.131Z,15.15
2018-02-24T01:22:50.336Z,15.18
2018-02-24T01:25:16.588Z,16.50
2018-02-24T01:27:43.550Z,16.50
2018-02-24T01:30:09.765Z,15.63
2018-02-24T01:32:36.007Z,16.20
2018-02-24T01:35:02.228Z,15.27
2018-02-24T01:37:28.476Z,13.25
2018-02-24T01:39:54.683Z,15.52
2018-02-24T01:42:20.914Z,14.87
2018-02-24T01:44:47.140Z,16.95
2018-02-24T01:47:13.365Z,17.30
2018-02-24T01:49:40.285Z,15.50
2018-02-24T01:52:06.518Z,15.77
2018-02-24T01:54:32.709Z,15.80
2018-02-24T01:56:58.931Z,15.23
2018-02-24T01:59:25.119Z,14.40
2018-02-24T02:01:52.114Z,14.70
2018-02-24T02:04:18.330Z,16.45
2018-02-24T02:06:44.566Z,14.30
2018-02-24T02:09:10.790Z,14.90
2018-02-24T02:11:37.000Z,14.95
2018-02-24T02:14:03.229Z,14.98
2018-02-24T02:16:30.178Z,14.63
2018-02-24T02:18:56.801Z,14.40
2018-02-24T02:21:23.010Z,13.52
2018-02-24T02:23:49.205Z,15.45
2018-02-24T02:26:15.468Z,16.20
2018-02-24T02:28:42.437Z,15.57
2018-02-24T02:31:09.348Z,15.65
2018-02-24T02:33:36.291Z,14.82
2018-02-24T02:36:02.453Z,16.98
2018-02-24T02:38:28.640Z,14.82
2018-02-24T02:40:54.841Z,13.65
2018-02-24T02:43:21.050Z,14.65
2018-02-24T02:45:47.261Z,14.85
2018-02-24T02:48:13.484Z,16.08
2018-02-24T02:50:39.696Z,13.50
2018-02-24T02:53:05.910Z,15.60
2018-02-24T02:55:32.102Z,15.20
2018-02-24T02:57:58.319Z,16.10
2018-02-24T03:00:24.569Z,15.32
2018-02-24T03:02:50.769Z,15.10
2018-02-24T03:05:16.969Z,16.60
2018-02-24T03:07:43.906Z,15.40
2018-02-24T03:10:10.093Z,15.48
2018-02-24T03:12:37.157Z,13.80
2018-02-24T03:15:03.371Z,14.63
2018-02-24T03:17:29.609Z,15.63
2018-02-24T03:19:58.225Z,15.07
2018-02-24T03:22:24.459Z,16.17
2018-02-24T03:24:50.679Z,16.40
2018-02-24T03:27:17.633Z,14.87
2018-02-24T03:29:43.841Z,16.33
2018-02-24T03:32:10.076Z,16.05
2018-02-24T03:34:36.272Z,16.60
2018-02-24T03:37:02.482Z,15.25
2018-02-24T03:39:29.037Z,15.20
2018-02-24T03:41:56.079Z,14.10
2018-02-24T03:44:22.261Z,15.48
2018-02-24T03:46:48.474Z,14.65
2018-02-24T03:49:14.656Z,14.05
2018-02-24T03:51:40.838Z,14.98
2018-02-24T03:54:07.038Z,15.70
2018-02-24T03:56:33.233Z,15.70
2018-02-24T03:58:59.442Z,15.73
2018-02-24T04:01:25.665Z,17.60
2018-02-24T04:03:51.910Z,17.27
2018-02-24T04:06:18.110Z,14.73
2018-02-24T04:08:45.055Z,15.82
2018-02-24T04:11:11.254Z,16.12
2018-02-24T04:13:37.458Z,16.17
2018-02-24T04:16:03.661Z,18.90
2018-02-24T04:18:29.860Z,17.50
2018-02-24T04:20:56.105Z,16.70
2018-02-24T04:23:22.337Z,17.33
2018-02-24T04:25:48.602Z,17.35
2018-02-24T04:28:14.849Z,15.38
2018-02-24T04:30:41.065Z,15.88
2018-02-24T04:33:07.293Z,15.68
2018-02-24T04:35:33.517Z,15.02
2018-02-24T04:38:00.476Z,14.98
2018-02-24T04:40:26.691Z,17.58
2018-02-24T04:42:52.896Z,18.52
2018-02-24T04:45:19.136Z,17.98
2018-02-24T04:47:45.337Z,15.93
2018-02-24T04:50:11.546Z,16.90
2018-02-24T04:52:37.745Z,16.85
2018-02-24T04:55:03.931Z,18.50
2018-02-24T04:57:30.142Z,14.73
2018-02-24T04:59:56.337Z,15.25
2018-02-24T05:02:23.280Z,16.05
2018-02-24T05:04:49.535Z,15.18
2018-02-24T05:07:16.475Z,15.98
2018-02-24T05:09:42.684Z,15.82
2018-02-24T05:12:08.924Z,17.25
2018-02-24T05:14:35.152Z,15.48
2018-02-24T05:17:01.389Z,16.48
2018-02-24T05:19:27.624Z,14.87
2018-02-24T05:21:53.828Z,16.12
2018-02-24T05:24:20.098Z,16.08
2018-02-24T05:26:46.357Z,16.67
2018-02-24T05:29:16.876Z,15.85
2018-02-24T05:31:43.095Z,16.40
2018-02-24T05:34:10.044Z,15.63
2018-02-24T05:36:36.991Z,16.95
2018-02-24T05:39:03.948Z,16.65
2018-02-24T05:41:30.175Z,16.23
2018-02-24T05:43:56.401Z,14.98
2018-02-24T05:46:22.740Z,15.55
2018-02-24T05:48:48.982Z,17.15
2018-02-24T05:51:15.213Z,14.75
2018-02-24T05:53:41.475Z,15.52
2018-02-24T05:56:07.692Z,15.52
2018-02-24T05:58:33.944Z,14.82
2018-02-24T06:01:00.177Z,15.40
2018-02-24T06:03:26.392Z,16.62
2018-02-24T06:05:52.721Z,15.70
2018-02-24T06:08:19.101Z,15.45
2018-02-24T06:10:45.347Z,16.60
2018-02-24T06:13:11.902Z,16.87
2018-02-24T06:15:39.023Z,15.10
2018-02-24T06:18:05.969Z,14.10
2018-02-24T06:20:32.208Z,16.25
2018-02-24T06:22:58.438Z,14.30
2018-02-24T06:25:25.434Z,14.52
2018-02-24T06:27:51.649Z,15.05
2018-02-24T06:30:17.877Z,15.40
2018-02-24T06:32:44.085Z,14.18
2018-02-24T06:35:10.350Z,15.30
2018-02-24T06:37:36.601Z,14.95
2018-02-24T06:40:03.688Z,15.27
2018-02-24T06:42:29.915Z,15.63
2018-02-24T06:44:56.921Z,13.85
2018-02-24T06:47:23.130Z,14.95
2018-02-24T06:49:49.356Z,13.88
2018-02-24T06:52:15.585Z,17.30
2018-02-24T06:54:42.568Z,14.73
2018-02-24T06:57:09.611Z,15.38
2018-02-24T06:59:36.554Z,14.13
2018-02-24T07:02:02.871Z,15.68
2018-02-24T07:04:29.061Z,14.38
2018-02-24T07:06:56.022Z,15.10
2018-02-24T07:09:22.220Z,14.23
2018-02-24T07:11:49.273Z,16.85
2018-02-24T07:14:15.494Z,14.75
2018-02-24T07:16:41.722Z,13.95
2018-02-24T07:19:08.769Z,14.52
2018-02-24T07:21:35.098Z,14.77
2018-02-24T07:24:01.288Z,15.73
2018-02-24T07:26:27.496Z,15.85
2018-02-24T07:28:53.738Z,14.57
2018-02-24T07:31:20.681Z,15.10
2018-02-24T07:33:46.905Z,15.18
2018-02-24T07:36:12.940Z,14.95
2018-02-24T07:38:38.971Z,12.75
2018-02-24T07:41:05.027Z,14.18
2018-02-24T07:43:31.078Z,13.68
2018-02-24T07:45:57.122Z,13.77
2018-02-24T07:48:23.140Z,13.68
2018-02-24T07:50:49.214Z,12.48
2018-02-24T07:53:15.985Z,11.50
2018-02-24T07:55:42.751Z,13.65
2018-02-24T07:58:08.784Z,15.00
2018-02-24T08:00:35.609Z,12.95
2018-02-24T08:03:01.630Z,15.52
2018-02-24T08:05:27.646Z,14.27
2018-02-24T08:07:53.655Z,13.07
2018-02-24T08:10:19.694Z,11.65
2018-02-24T08:12:45.734Z,14.52
2018-02-24T08:15:11.768Z,13.60
2018-02-24T08:17:37.803Z,13.48
2018-02-24T08:20:03.873Z,12.23
2018-02-24T08:22:29.910Z,12.20
2018-02-24T08:24:56.696Z,13.25
2018-02-24T08:27:22.737Z,13.73
2018-02-24T08:29:48.752Z,12.90
2018-02-24T08:32:14.770Z,13.38
2018-02-24T08:34:40.788Z,11.85
2018-02-24T08:37:06.812Z,12.65
2018-02-24T08:39:32.857Z,12.40
2018-02-24T08:41:58.908Z,12.35
2018-02-24T08:44:24.925Z,12.85
2018-02-24T08:46:50.945Z,13.48
2018-02-24T08:49:17.032Z,13.32
2018-02-24T08:51:43.076Z,12.45
2018-02-24T08:54:09.211Z,13.40
2018-02-24T08:56:35.366Z,12.37
2018-02-24T08:59:01.489Z,12.75
2018-02-24T09:01:27.521Z,13.05
2018-02-24T09:03:53.547Z,11.82
2018-02-24T09:06:19.586Z,11.98
2018-02-24T09:08:45.608Z,11.98
2018-02-24T09:11:12.402Z,11.27
2018-02-24T09:13:39.165Z,12.15
2018-02-24T09:16:05.925Z,11.55
2018-02-24T09:18:32.686Z,11.20
2018-02-24T09:20:59.455Z,12.30
2018-02-24T09:23:25.469Z,11.68
2018-02-24T09:25:51.502Z,11.50
2018-02-24T09:28:18.248Z,13.98
2018-02-24T09:30:44.280Z,10.82
2018-02-24T09:33:11.055Z,10.50
2018-02-24T09:35:37.093Z,12.85
2018-02-24T09:38:03.230Z,11.45
2018-02-24T09:40:29.301Z,10.73
2018-02-24T09:42:55.307Z,12.15
2018-02-24T09:45:21.408Z,11.38
2018-02-24T09:47:48.176Z,10.63
2018-02-24T09:50:14.933Z,11.15
2018-02-24T09:52:41.781Z,9.95
2018-02-24T09:55:08.520Z,10.90
2018-02-24T09:57:34.533Z,11.85
2018-02-24T10:00:00.572Z,9.93
2018-02-24T10:02:26.673Z,9.55
2018-02-24T10:04:52.781Z,8.30
2018-02-24T10:07:19.000Z,10.05
2018-02-24T10:09:45.025Z,7.75
2018-02-24T10:12:11.890Z,8.50
2018-02-24T10:14:38.018Z,8.20
2018-02-24T10:17:04.095Z,6.50
2018-02-24T10:19:30.131Z,6.68
2018-02-24T10:21:56.894Z,6.97
2018-02-24T10:24:23.109Z,7.70
2018-02-24T10:26:49.984Z,6.37
2018-02-24T10:29:15.996Z,7.03
2018-02-24T10:31:42.765Z,6.47
2018-02-24T10:34:09.665Z,6.20
2018-02-24T10:36:35.681Z,7.03
2018-02-24T10:39:01.696Z,6.55
2018-02-24T10:41:28.461Z,5.93
2018-02-24T10:43:54.493Z,7.57
2018-02-24T10:46:20.569Z,6.70
2018-02-24T10:48:46.666Z,5.45
2018-02-24T10:51:13.396Z,6.50
2018-02-24T10:53:40.176Z,5.97
2018-02-24T10:56:06.201Z,5.78
2018-02-24T10:58:32.229Z,6.05
2018-02-24T11:00:59.013Z,5.70
2018-02-24T11:03:25.079Z,5.90
2018-02-24T11:05:51.179Z,5.85
2018-02-24T11:08:17.170Z,6.10
2018-02-24T11:10:43.420Z,5.40
2018-02-24T11:13:09.681Z,5.68
2018-02-24T11:15:35.883Z,6.15
2018-02-24T11:18:02.137Z,5.57
2018-02-24T11:20:28.358Z,5.70
2018-02-24T11:22:55.246Z,5.30
2018-02-24T11:25:21.572Z,5.82
2018-02-24T11:27:47.796Z,5.80
2018-02-24T11:30:14.070Z,5.20
2018-02-24T11:32:40.281Z,5.55
2018-02-24T11:35:06.548Z,5.55
2018-02-24T11:37:32.851Z,6.03
2018-02-24T11:39:59.128Z,5.55
2018-02-24T11:42:25.381Z,5.00
2018-02-24T11:44:52.360Z,5.40
2018-02-24T11:47:19.308Z,4.60
2018-02-24T11:49:46.323Z,5.80
2018-02-24T11:52:12.530Z,5.10
2018-02-24T11:54:39.012Z,5.40
2018-02-24T11:57:05.238Z,6.07
2018-02-24T11:59:31.449Z,4.97
2018-02-24T12:01:58.401Z,5.93
2018-02-24T12:04:25.395Z,5.55
2018-02-24T12:06:51.638Z,5.50
2018-02-24T12:09:18.104Z,6.07
2018-02-24T12:11:45.123Z,5.62
2018-02-24T12:14:11.365Z,5.95
2018-02-24T12:16:37.604Z,5.35
2018-02-24T12:19:03.800Z,5.45
2018-02-24T12:21:30.022Z,4.78
2018-02-24T12:23:56.231Z,5.40
2018-02-24T12:26:22.523Z,5.75
2018-02-24T12:28:48.700Z,5.65
2018-02-24T12:31:14.918Z,5.18
2018-02-24T12:33:41.873Z,4.53
2018-02-24T12:36:08.140Z,4.93
2018-02-24T12:38:34.369Z,5.00
2018-02-24T12:41:00.703Z,4.70
2018-02-24T12:43:26.981Z,4.53
2018-02-24T12:45:53.216Z,4.50
2018-02-24T12:48:19.454Z,4.03
2018-02-24T12:50:45.789Z,4.85
2018-02-24T12:53:12.053Z,4.03
2018-02-24T12:55:38.286Z,4.40
2018-02-24T12:58:04.524Z,4.32
2018-02-24T13:00:30.777Z,4.20
2018-02-24T13:02:56.967Z,4.57
2018-02-24T13:05:23.946Z,3.80
2018-02-24T13:07:50.231Z,3.58
2018-02-24T13:10:16.469Z,4.97
2018-02-24T13:12:42.675Z,3.65
2018-02-24T13:15:08.894Z,5.05
2018-02-24T13:17:35.086Z,3.45
2018-02-24T13:20:01.314Z,4.00
2018-02-24T13:22:27.518Z,3.87
2018-02-24T13:24:53.773Z,4.47
2018-02-24T13:27:19.798Z,4.07
2018-02-24T13:29:45.820Z,4.75
2018-02-24T13:32:11.886Z,4.28
2018-02-24T13:34:37.910Z,3.87
2018-02-24T13:37:03.942Z,3.85
2018-02-24T13:39:29.969Z,5.15
2018-02-24T13:41:55.993Z,4.78
2018-02-24T13:44:22.778Z,4.60
2018-02-24T13:46:48.866Z,4.47
2018-02-24T13:49:15.641Z,4.62
2018-02-24T13:51:41.668Z,3.95
2018-02-24T13:54:08.435Z,4.60
2018-02-24T13:56:34.469Z,5.15
2018-02-24T13:59:00.509Z,4.60
2018-02-24T14:01:26.523Z,4.18
2018-02-24T14:03:53.362Z,4.03
2018-02-24T14:06:19.399Z,4.25
2018-02-24T14:08:45.414Z,4.55
2018-02-24T14:11:11.527Z,4.65
2018-02-24T14:13:37.542Z,4.90
2018-02-24T14:16:03.578Z,6.07
2018-02-24T14:18:29.645Z,4.70
2018-02-24T14:20:55.720Z,6.47
2018-02-24T14:23:21.778Z,4.65
2018-02-24T14:25:47.834Z,6.05
2018-02-24T14:28:13.874Z,5.20
2018-02-24T14:30:39.919Z,5.28
2018-02-24T14:33:05.936Z,5.70
2018-02-24T14:35:31.961Z,5.37
2018-02-24T14:38:00.941Z,6.12
2018-02-24T14:40:27.033Z,5.10
2018-02-24T14:42:53.123Z,7.12
2018-02-24T14:45:19.158Z,5.32
2018-02-24T14:47:45.179Z,6.03
2018-02-24T14:50:11.742Z,6.60
2018-02-24T14:52:37.780Z,6.20
2018-02-24T14:55:06.944Z,6.15
2018-02-24T14:57:35.220Z,8.48
2018-02-24T15:00:01.256Z,7.15
2018-02-24T15:02:27.996Z,7.15
2018-02-24T15:04:54.808Z,7.18
2018-02-24T15:07:20.859Z,6.45
2018-02-24T15:09:46.885Z,7.47
2018-02-24T15:12:15.939Z,6.20
2018-02-24T15:14:42.781Z,6.25
2018-02-24T15:17:08.856Z,7.22
2018-02-24T15:19:35.612Z,6.65
2018-02-24T15:22:01.670Z,5.50
2018-02-24T15:24:27.692Z,6.95
2018-02-24T15:26:53.747Z,7.60
2018-02-24T15:29:19.908Z,7.55
2018-02-24T15:31:45.953Z,6.37
2018-02-24T15:34:12.331Z,6.68
2018-02-24T15:36:38.419Z,6.72
2018-02-24T15:39:04.554Z,7.87
2018-02-24T15:41:30.600Z,6.53
2018-02-24T15:43:56.802Z,6.85
2018-02-24T15:46:22.913Z,6.87
2018-02-24T15:48:48.940Z,6.90
2018-02-24T15:51:15.719Z,5.90
2018-02-24T15:53:42.164Z,5.62
2018-02-24T15:56:08.427Z,6.10
2018-02-24T15:58:34.504Z,5.70
2018-02-24T16:01:01.477Z,6.20
2018-02-24T16:03:27.491Z,5.82
2018-02-24T16:05:53.521Z,5.28
2018-02-24T16:08:19.578Z,5.25
2018-02-24T16:10:46.409Z,5.40
2018-02-24T16:13:12.488Z,5.25
2018-02-24T16:15:39.371Z,5.03
2018-02-24T16:18:05.413Z,4.68
2018-02-24T16:20:31.502Z,4.87
2018-02-24T16:22:57.620Z,5.10
2018-02-24T16:25:23.681Z,4.07
2018-02-24T16:27:50.517Z,4.90
2018-02-24T16:30:16.561Z,5.40
2018-02-24T16:32:42.635Z,4.95
2018-02-24T16:35:08.680Z,5.05
2018-02-24T16:37:34.700Z,4.28
2018-02-24T16:40:01.769Z,5.10
2018-02-24T16:42:27.857Z,3.45
2018-02-24T16:44:53.942Z,3.95
2018-02-24T16:47:20.020Z,4.80
2018-02-24T16:49:46.103Z,3.83
2018-02-24T16:52:12.145Z,4.32
2018-02-24T16:54:38.974Z,3.75
2018-02-24T16:57:04.985Z,4.22
2018-02-24T16:59:30.984Z,4.62
2018-02-24T17:01:57.065Z,4.25
2018-02-24T17:04:23.121Z,4.90
2018-02-24T17:06:49.138Z,3.87
2018-02-24T17:09:15.215Z,3.92
2018-02-24T17:11:41.274Z,4.30
2018-02-24T17:14:07.329Z,3.62
2018-02-24T17:16:33.364Z,4.35
2018-02-24T17:18:59.567Z,3.35
2018-02-24T17:21:25.817Z,3.17
2018-02-24T17:23:52.822Z,2.53
2018-02-24T17:26:19.017Z,2.78
2018-02-24T17:28:45.237Z,2.50
2018-02-24T17:31:11.441Z,2.45
2018-02-24T17:33:37.706Z,2.90
2018-02-24T17:36:03.928Z,3.00
2018-02-24T17:38:30.157Z,2.62
2018-02-24T17:40:57.690Z,2.37
2018-02-24T17:43:24.116Z,2.75
2018-02-24T17:45:50.342Z,3.12
2018-02-24T17:48:17.323Z,2.85
2018-02-24T17:50:43.614Z,2.70
2018-02-24T17:53:09.852Z,2.85
2018-02-24T17:55:36.049Z,2.15
2018-02-24T17:58:03.000Z,2.65
2018-02-24T18:00:29.960Z,2.50
2018-02-24T18:02:56.181Z,3.03
2018-02-24T18:05:22.518Z,1.85
2018-02-24T18:07:49.513Z,2.15
2018-02-24T18:10:16.494Z,2.35
2018-02-24T18:12:42.772Z,2.20
2018-02-24T18:15:08.997Z,2.30
2018-02-24T18:17:35.249Z,2.60
2018-02-24T18:20:01.755Z,2.50
2018-02-24T18:22:28.824Z,2.20
2018-02-24T18:24:55.033Z,2.62
2018-02-24T18:27:21.307Z,2.60
2018-02-24T18:29:47.593Z,2.00
2018-02-24T18:32:13.800Z,1.85
2018-02-24T18:34:40.733Z,1.90
2018-02-24T18:37:07.726Z,2.72
2018-02-24T18:39:36.057Z,2.22
2018-02-24T18:42:02.288Z,2.00
2018-02-24T18:44:28.513Z,2.40
2018-02-24T18:46:54.755Z,2.50
2018-02-24T18:49:21.034Z,2.72
2018-02-24T18:51:47.989Z,1.92
2018-02-24T18:54:14.209Z,2.33
2018-02-24T18:56:40.982Z,2.08
2018-02-24T18:59:07.021Z,2.22
2018-02-24T19:01:33.205Z,2.00
2018-02-24T19:03:59.225Z,2.40
2018-02-24T19:06:25.246Z,2.37
2018-02-24T19:08:51.261Z,3.12
2018-02-24T19:11:17.306Z,2.47
2018-02-24T19:13:43.705Z,2.92
2018-02-24T19:16:10.530Z,2.75
2018-02-24T19:18:36.561Z,2.75
2018-02-24T19:21:02.626Z,3.03
2018-02-24T19:23:29.684Z,2.62
2018-02-24T19:25:55.711Z,2.47
2018-02-24T19:28:21.745Z,2.47
2018-02-24T19:30:47.794Z,2.83
2018-02-24T19:33:14.126Z,2.80
2018-02-24T19:35:40.165Z,2.40
2018-02-24T19:38:06.208Z,2.70
2018-02-24T19:40:32.239Z,3.47
2018-02-24T19:42:58.277Z,2.65
2018-02-24T19:45:24.367Z,2.45
2018-02-24T19:47:50.424Z,2.20
2018-02-24T19:50:16.681Z,1.77
2018-02-24T19:52:42.830Z,2.00
2018-02-24T19:55:08.992Z,2.37
2018-02-24T19:57:35.838Z,1.83
2018-02-24T20:00:01.865Z,2.72
2018-02-24T20:02:27.915Z,2.10
2018-02-24T20:04:54.080Z,1.90
2018-02-24T20:07:20.840Z,2.55
2018-02-24T20:09:46.881Z,2.40
2018-02-24T20:12:12.975Z,2.15
2018-02-24T20:14:39.142Z,2.20
2018-02-24T20:17:05.972Z,2.45
2018-02-24T20:19:32.161Z,2.60
2018-02-24T20:21:58.216Z,2.15
2018-02-24T20:24:25.014Z,1.92
2018-02-24T20:26:51.864Z,2.55
2018-02-24T20:29:17.958Z,2.12
2018-02-24T20:31:44.007Z,2.03
2018-02-24T20:34:10.040Z,2.50
2018-02-24T20:36:36.192Z,2.10
2018-02-24T20:39:02.243Z,2.40
2018-02-24T20:41:28.997Z,2.42
2018-02-24T20:43:55.017Z,2.20
2018-02-24T20:46:21.058Z,2.05
2018-02-24T20:48:47.092Z,2.17
2018-02-24T20:51:13.128Z,2.53
2018-02-24T20:53:39.154Z,2.80
2018-02-24T20:56:05.193Z,2.62
2018-02-24T20:58:31.266Z,2.10
2018-02-24T21:00:58.082Z,2.40
2018-02-24T21:03:24.869Z,2.92
2018-02-24T21:05:51.645Z,2.30
2018-02-24T21:08:17.786Z,1.98
2018-02-24T21:10:43.850Z,2.75
2018-02-24T21:13:09.872Z,3.05
2018-02-24T21:15:35.908Z,2.10
2018-02-24T21:18:02.078Z,2.37
2018-02-24T21:20:28.949Z,2.30
2018-02-24T21:25:27.766Z,2.35
2018-02-24T21:27:55.073Z,2.70
2018-02-24T21:30:21.109Z,2.83
2018-02-24T21:32:47.142Z,2.67
2018-02-24T21:35:13.226Z,2.30
2018-02-24T21:37:39.262Z,2.70
2018-02-24T21:40:05.287Z,2.47
2018-02-24T21:42:31.317Z,2.30
2018-02-24T21:44:57.613Z,2.25
2018-02-24T21:47:24.452Z,3.00
2018-02-24T21:49:50.493Z,2.67
2018-02-24T21:52:16.522Z,2.33
2018-02-24T21:54:42.550Z,2.60
2018-02-24T21:57:08.626Z,3.00
2018-02-24T21:59:34.690Z,3.03
2018-02-24T22:02:00.713Z,2.35
2018-02-24T22:04:26.776Z,2.37
2018-02-24T22:06:53.576Z,2.55
2018-02-24T22:09:20.418Z,2.80
2018-02-24T22:11:46.499Z,2.97
2018-02-24T22:14:12.536Z,2.10
2018-02-24T22:16:38.572Z,2.58
2018-02-24T22:19:04.655Z,2.95
2018-02-24T22:21:30.689Z,2.67
2018-02-24T22:23:56.698Z,2.87
2018-02-24T22:26:22.847Z,2.60
2018-02-24T22:28:49.576Z,2.67
2018-02-24T22:31:15.629Z,2.70
2018-02-24T22:33:41.753Z,2.60
2018-02-24T22:36:07.789Z,2.80
2018-02-24T22:38:33.801Z,2.80
2018-02-24T22:40:59.829Z,3.28
2018-02-24T22:43:26.610Z,2.67
2018-02-24T22:45:52.903Z,4.60
2018-02-24T22:48:25.907Z,2.97
2018-02-24T22:50:51.929Z,3.00
2018-02-24T22:53:17.953Z,3.10
2018-02-24T22:55:44.027Z,3.42
2018-02-24T22:58:10.819Z,4.95
2018-02-24T23:00:36.859Z,2.53
2018-02-24T23:03:03.637Z,3.10
2018-02-24T23:05:29.644Z,2.90
2018-02-24T23:07:56.021Z,2.97
2018-02-24T23:10:22.069Z,3.40
2018-02-24T23:12:48.102Z,3.05
2018-02-24T23:15:14.148Z,3.25
2018-02-24T23:17:40.932Z,3.72
2018-02-24T23:20:06.962Z,2.70
2018-02-24T23:22:33.041Z,3.00
2018-02-24T23:24:59.077Z,2.85
2018-02-24T23:27:25.121Z,3.12
2018-02-24T23:29:51.325Z,3.30
2018-02-24T23:32:17.572Z,2.65
2018-02-24T23:34:44.546Z,3.05
2018-02-24T23:37:11.118Z,3.62
2018-02-24T23:39:37.157Z,3.12
2018-02-24T23:42:03.383Z,4.05
2018-02-24T23:44:29.590Z,4.12
2018-02-24T23:46:55.831Z,3.15
2018-02-24T23:49:22.077Z,3.20
2018-02-24T23:51:49.081Z,3.42
2018-02-24T23:54:15.277Z,3.25
2018-02-24T23:56:41.520Z,3.28
2018-02-24T23:59:07.750Z,3.50
